KCWF

Details ICAO KCWF
Name CHENNAULT INTL
Region United States
Timezone America/Chicago (UTC-6.0)
Plans Departing 8
Arriving 9
Stats Elevation 17 ft / 5 m (AMSL)
Location 30.210594° -93.143195°
Runways 1
Magnetic Variation 1.107° E
Sunrise 2017-12-18 13:04:42 UTC / 2017-12-18 07:04:42 Local
Sunset 2017-12-18 23:16:37 UTC / 2017-12-18 17:16:37 Local
Advertisement - Login to hide

Runways

ID Width Length Bearing (true) Bearing (mag) Surface Threshold Offset Overrun Length
15 200 ft / 61 m 10,711 ft / 3,265 m 154.45° 153.34° Concrete 0 ft / 0 m 765 ft / 233 m
33 200 ft / 61 m 10,711 ft / 3,265 m 334.45° 333.34° Concrete 0 ft / 0 m 200 ft / 61 m

Approach Navaids

Runway Type Ident Frequency Range Bearing (true) Bearing (mag) Slope Elevation
15 Localiser ICWF 110.70 MHz 18 nm / 33 km 154.50° 153.40° - 17 ft / 5 m (AMSL)
15 Glidescope ICWF 110.70 MHz 10 nm / 19 km 154.45° 153.34° 3.00° 15 ft / 5 m (AMSL)

Map

Weather


0- 5 10 15 20 25 30 35+ Temperature / ° C

Clouds and Precipitation
Forecast for 2017-12-19 00:00 UTC. Updated an hour ago

Ground ~20,000 ft ~40,000 ft Winds

METAR

KCWF 182150Z 09008G17KT 10SM OVC018 20/17 A3015

TAF

Not found

Frequencies

Recorded 120.00 MHz AWOS 3
Unicom 122.95 MHz UNICOM
Tower 124.20 MHz TWR
Unicom 124.20 MHz CTAF
Ground 121.65 MHz GND
Approach 119.80 MHz LAKE CHARLES APP/DEP
Warning: Do not use this data for real-world aviation or navigation. No guarantee of current accuracy is given.